createdAt,value
2023-04-14T00:00:50.958Z,4.90
2023-04-14T00:03:21.171Z,4.80
2023-04-14T00:05:51.362Z,4.80
2023-04-14T00:08:23.885Z,4.80
2023-04-14T00:10:54.050Z,4.70
2023-04-14T00:13:24.114Z,4.60
2023-04-14T00:15:54.114Z,4.50
2023-04-14T00:18:24.155Z,4.50
2023-04-14T00:20:54.488Z,4.50
2023-04-14T00:23:27.095Z,4.50
2023-04-14T00:25:57.277Z,4.50
2023-04-14T00:28:27.328Z,4.50
2023-04-14T00:30:57.299Z,4.40
2023-04-14T00:33:27.672Z,4.40
2023-04-14T00:35:57.792Z,4.40
2023-04-14T00:38:30.589Z,4.40
2023-04-14T00:41:00.903Z,4.40
2023-04-14T00:43:30.991Z,4.40
2023-04-14T00:46:01.636Z,4.30
2023-04-14T00:48:32.582Z,4.20
2023-04-14T00:51:02.703Z,4.20
2023-04-14T00:53:35.520Z,4.20
2023-04-14T00:56:05.852Z,4.20
2023-04-14T00:58:36.108Z,4.10
2023-04-14T01:01:06.611Z,4.20
2023-04-14T01:03:38.293Z,4.10
2023-04-14T01:06:08.663Z,4.10
2023-04-14T01:08:41.471Z,4.00
2023-04-14T01:11:19.383Z,3.90
2023-04-14T01:13:56.582Z,3.90
2023-04-14T01:16:32.701Z,3.90
2023-04-14T01:19:11.314Z,3.80
2023-04-14T01:21:44.561Z,3.80
2023-04-14T01:24:38.754Z,4.00
2023-04-14T01:27:26.076Z,4.10
2023-04-14T01:30:13.195Z,4.20
2023-04-14T01:32:50.008Z,4.30
2023-04-14T01:35:29.356Z,4.40
2023-04-14T01:38:06.699Z,4.30
2023-04-14T01:40:38.139Z,4.40
2023-04-14T01:43:13.154Z,4.20
2023-04-14T01:45:52.045Z,4.20
2023-04-14T01:48:26.763Z,4.20
2023-04-14T01:50:58.820Z,4.20
2023-04-14T01:53:30.984Z,4.20
2023-04-14T01:56:02.499Z,4.10
2023-04-14T01:58:33.964Z,4.10
2023-04-14T02:01:04.337Z,4.10
2023-04-14T02:03:38.963Z,3.90
2023-04-14T02:06:11.842Z,3.90
2023-04-14T02:08:43.959Z,3.80
2023-04-14T02:11:16.070Z,3.60
2023-04-14T02:13:46.716Z,3.50
2023-04-14T02:16:18.086Z,3.50
2023-04-14T02:18:52.484Z,3.30
2023-04-14T02:21:25.913Z,3.30
2023-04-14T02:23:55.940Z,3.30
2023-04-14T02:26:30.637Z,3.10
2023-04-14T02:29:13.915Z,3.00
2023-04-14T02:31:48.023Z,3.00
2023-04-14T02:34:26.658Z,2.90
2023-04-14T02:36:59.384Z,3.00
2023-04-14T02:39:34.624Z,3.00
2023-04-14T02:42:11.159Z,3.00
2023-04-14T02:44:48.492Z,2.90
2023-04-14T02:47:26.051Z,3.00
2023-04-14T02:50:03.481Z,3.10
2023-04-14T02:52:35.683Z,3.20
2023-04-14T02:55:08.826Z,3.30
2023-04-14T02:57:39.404Z,3.40
2023-04-14T03:00:11.362Z,3.40
2023-04-14T03:02:47.240Z,3.50
2023-04-14T03:05:20.792Z,3.50
2023-04-14T03:08:13.754Z,3.40
2023-04-14T03:10:48.421Z,3.40
2023-04-14T03:13:21.820Z,3.40
2023-04-14T03:15:53.604Z,3.30
2023-04-14T03:18:25.508Z,3.20
2023-04-14T03:21:00.949Z,3.10
2023-04-14T07:17:07.897Z,18.20
2023-04-14T07:19:37.790Z,18.10
2023-04-14T07:22:09.169Z,18.00
2023-04-14T07:24:41.759Z,18.60
2023-04-14T07:27:15.667Z,18.80
2023-04-14T07:29:45.862Z,18.30
2023-04-14T07:32:16.198Z,18.60
2023-04-14T07:34:46.440Z,18.40
2023-04-14T07:37:16.584Z,18.80
2023-04-14T07:39:49.075Z,18.90
2023-04-14T07:42:19.056Z,19.10
2023-04-14T07:44:48.962Z,19.10
2023-04-14T07:47:18.813Z,19.60
2023-04-14T07:49:49.369Z,21.70
2023-04-14T07:52:19.681Z,21.90
2023-04-14T07:54:52.131Z,20.80
2023-04-14T07:57:22.015Z,21.00
2023-04-14T07:59:51.914Z,22.80
2023-04-14T08:02:21.955Z,24.50
2023-04-14T08:04:52.029Z,25.40
2023-04-14T08:07:21.902Z,26.40
2023-04-14T08:09:54.394Z,27.50
2023-04-14T08:12:24.344Z,28.50
2023-04-14T08:14:57.250Z,29.50
2023-04-14T08:17:27.417Z,30.00
2023-04-14T08:19:57.496Z,29.70
2023-04-14T08:22:27.572Z,30.00
2023-04-14T08:25:00.034Z,30.30
2023-04-14T08:27:30.121Z,30.70
2023-04-14T08:30:00.344Z,29.20
2023-04-14T09:31:17.494Z,26.70
2023-04-14T09:33:51.149Z,27.60
2023-04-14T09:36:22.558Z,27.40
2023-04-14T09:38:53.595Z,27.90
2023-04-14T09:41:26.737Z,28.10
2023-04-14T09:43:56.621Z,28.60
2023-04-14T09:46:26.506Z,29.10
2023-04-14T09:48:58.015Z,29.70
2023-04-14T09:51:33.070Z,29.90
2023-04-14T09:54:06.464Z,30.00
2023-04-14T09:56:39.302Z,30.40
2023-04-14T09:59:10.913Z,27.50
2023-04-14T10:01:40.872Z,26.10
2023-04-14T10:04:24.766Z,25.00
2023-04-14T10:06:58.305Z,24.40
2023-04-14T10:09:29.747Z,23.90
2023-04-14T10:12:18.606Z,23.50
2023-04-14T10:14:48.539Z,22.80
2023-04-14T10:17:19.853Z,22.30
2023-04-14T10:19:50.123Z,23.60
2023-04-14T10:22:20.914Z,23.90
2023-04-14T10:24:52.442Z,25.30
2023-04-14T10:27:25.691Z,25.90
2023-04-14T10:29:56.243Z,25.00
2023-04-14T10:32:28.210Z,25.20
2023-04-14T10:35:02.491Z,26.00
2023-04-14T10:37:32.996Z,26.10
2023-04-14T10:40:05.604Z,26.40
2023-04-14T10:42:57.450Z,25.50
2023-04-14T10:45:27.467Z,26.30
2023-04-14T10:47:58.921Z,25.80
2023-04-14T10:50:32.109Z,25.80
2023-04-14T10:53:09.641Z,25.90
2023-04-14T10:55:52.312Z,27.60
2023-04-14T10:58:26.030Z,28.50
2023-04-14T11:00:55.959Z,28.20
2023-04-14T11:03:28.750Z,26.30
2023-04-14T11:05:58.828Z,22.20
2023-04-14T11:08:30.845Z,20.30
2023-04-14T11:11:04.360Z,19.30
2023-04-14T11:13:38.875Z,18.10
2023-04-14T11:16:10.939Z,17.70
2023-04-14T11:18:45.337Z,17.20
2023-04-14T11:21:18.400Z,16.60
2023-04-14T11:23:49.221Z,17.20
2023-04-14T11:26:19.488Z,18.10
2023-04-14T11:28:53.700Z,18.40
2023-04-14T11:31:23.572Z,20.10
2023-04-14T11:33:53.433Z,19.80
2023-04-14T11:36:23.562Z,19.10
2023-04-14T11:38:53.467Z,21.60
2023-04-14T11:41:23.482Z,23.10
2023-04-14T11:43:57.190Z,23.00
2023-04-14T11:46:27.365Z,23.70
2023-04-14T11:48:58.948Z,23.90
2023-04-14T11:51:33.829Z,25.00
2023-04-14T11:54:03.799Z,26.30
2023-04-14T11:56:34.726Z,25.80
2023-04-14T11:59:09.030Z,26.40
2023-04-14T12:01:39.045Z,27.00
2023-04-14T12:04:10.727Z,28.10
2023-04-14T12:06:41.589Z,28.70
2023-04-14T12:09:12.315Z,29.30
2023-04-14T12:11:42.199Z,26.60
2023-04-14T12:14:15.668Z,25.40
2023-04-14T12:16:45.595Z,25.50
2023-04-14T12:19:17.551Z,24.60
2023-04-14T12:21:54.373Z,24.20
2023-04-14T12:24:24.277Z,24.80
2023-04-14T12:26:55.009Z,23.50
2023-04-14T12:29:27.547Z,24.10
2023-04-14T12:31:57.781Z,23.60
2023-04-14T12:34:28.422Z,23.00
2023-04-14T12:36:58.326Z,21.30
2023-04-14T12:39:29.083Z,19.20
2023-04-14T12:42:01.724Z,17.80
2023-04-14T12:44:34.234Z,16.90
2023-04-14T12:47:04.141Z,16.40
2023-04-14T12:49:39.132Z,15.90
2023-04-14T12:52:09.280Z,15.70
2023-04-14T12:54:50.158Z,15.70
2023-04-14T12:57:21.830Z,15.70
2023-04-14T12:59:54.949Z,15.80
2023-04-14T13:02:25.349Z,15.90
2023-04-14T13:04:55.397Z,16.20
2023-04-14T13:07:25.539Z,17.40
2023-04-14T13:09:55.739Z,19.10
2023-04-14T13:12:25.926Z,20.20
2023-04-14T13:14:58.422Z,21.90
2023-04-14T13:17:28.820Z,22.20
2023-04-14T13:19:58.894Z,23.50
2023-04-14T13:22:28.874Z,24.50
2023-04-14T13:25:00.760Z,24.40
2023-04-14T13:27:31.150Z,24.00
2023-04-14T13:30:04.461Z,24.60
2023-04-14T13:32:34.560Z,24.40
2023-04-14T13:35:04.438Z,23.30
2023-04-14T13:37:34.312Z,24.20
2023-04-14T13:40:04.188Z,25.50
2023-04-14T13:42:34.152Z,25.70
2023-04-14T13:45:07.906Z,25.20
2023-04-14T13:47:37.859Z,23.80
2023-04-14T13:50:08.718Z,23.70
2023-04-14T13:52:38.570Z,23.50
2023-04-14T13:55:10.395Z,23.40
2023-04-14T13:57:40.437Z,22.30
2023-04-14T14:00:14.474Z,21.00
2023-04-14T14:02:44.503Z,21.20
2023-04-14T14:05:14.805Z,21.60
2023-04-14T14:07:44.826Z,21.20
2023-04-14T14:10:15.129Z,20.40
2023-04-14T14:12:45.067Z,20.90
2023-04-14T14:15:17.568Z,20.70
2023-04-14T14:17:47.602Z,20.70
2023-04-14T14:20:17.715Z,21.80
2023-04-14T14:22:47.879Z,22.10
2023-04-14T14:25:21.058Z,23.10
2023-04-14T14:27:52.161Z,22.70
2023-04-14T14:30:25.121Z,23.00
2023-04-14T14:32:54.994Z,23.30
2023-04-14T14:35:24.903Z,21.70
2023-04-14T14:37:54.768Z,20.90
2023-04-14T14:40:24.862Z,19.50
2023-04-14T14:42:54.730Z,17.50
2023-04-14T14:45:30.889Z,16.10
2023-04-14T14:48:02.176Z,15.30
2023-04-14T14:50:32.308Z,14.90
2023-04-14T14:53:02.150Z,14.50
2023-04-14T14:58:03.744Z,19.40
2023-04-14T15:00:36.392Z,19.50
2023-04-14T15:03:06.962Z,20.00
2023-04-14T15:05:37.194Z,20.30
2023-04-14T15:08:07.484Z,19.90
2023-04-14T15:10:37.661Z,20.30
2023-04-14T15:13:07.602Z,21.00
2023-04-14T15:15:40.440Z,20.60
2023-04-14T15:18:10.636Z,19.10
2023-04-14T15:20:40.584Z,18.90
2023-04-14T15:23:10.459Z,19.10
2023-04-14T15:25:40.344Z,19.80
2023-04-14T15:28:10.207Z,20.30
2023-04-14T15:30:42.786Z,20.80
2023-04-14T15:33:12.740Z,20.60
2023-04-14T15:35:42.670Z,21.20
2023-04-14T15:38:12.777Z,21.30
2023-04-14T15:40:42.823Z,20.70
2023-04-14T15:43:13.289Z,20.20
2023-04-14T15:45:46.274Z,20.30
2023-04-14T15:48:16.167Z,20.30
2023-04-14T15:50:46.148Z,19.60
2023-04-14T15:53:16.147Z,19.70
2023-04-14T15:55:46.974Z,19.20
2023-04-14T15:58:17.079Z,19.30
2023-04-14T16:00:49.936Z,19.60
2023-04-14T16:03:21.017Z,19.50
2023-04-14T16:05:51.030Z,18.80
2023-04-14T16:08:21.110Z,18.50
2023-04-14T16:10:51.019Z,18.10
2023-04-14T16:13:21.075Z,17.20
2023-04-14T16:15:53.789Z,16.50
2023-04-14T16:18:24.129Z,16.30
2023-04-14T16:20:54.017Z,15.90
2023-04-14T16:23:23.907Z,15.50
2023-04-14T16:25:53.819Z,15.30
2023-04-14T16:28:25.061Z,15.20
2023-04-14T16:30:57.689Z,15.10
2023-04-14T16:33:27.655Z,15.10
2023-04-14T16:35:58.645Z,14.70
2023-04-14T16:38:28.575Z,14.20
2023-04-14T16:40:59.153Z,13.80
2023-04-14T16:43:30.033Z,13.50
2023-04-14T16:46:08.039Z,13.20
2023-04-14T16:48:38.585Z,12.90
2023-04-14T16:51:09.613Z,12.80
2023-04-14T16:53:40.371Z,12.70
2023-04-14T16:56:11.420Z,12.60
2023-04-14T16:58:42.285Z,12.70
2023-04-14T17:01:15.004Z,13.20
2023-04-14T17:03:45.400Z,14.10
2023-04-14T17:06:15.611Z,14.90
2023-04-14T17:08:45.506Z,15.40
2023-04-14T17:11:16.222Z,15.50
2023-04-14T17:13:46.245Z,15.00
2023-04-14T17:16:18.806Z,14.50
2023-04-14T17:18:49.218Z,13.80
2023-04-14T17:21:19.458Z,13.10
2023-04-14T17:23:49.530Z,12.60
2023-04-14T17:26:19.715Z,12.30
2023-04-14T17:28:49.674Z,12.00
2023-04-14T17:31:22.948Z,11.80
2023-04-14T17:33:53.615Z,11.70
2023-04-14T17:36:23.521Z,11.50
2023-04-14T17:38:54.539Z,11.30
2023-04-14T17:41:25.147Z,11.20
2023-04-14T17:43:55.022Z,11.10
2023-04-14T17:46:33.719Z,10.90
2023-04-14T17:49:04.697Z,10.70
2023-04-14T17:51:35.428Z,10.60
2023-04-14T17:54:07.767Z,10.50
2023-04-14T17:56:37.927Z,10.30
2023-04-14T17:59:07.910Z,10.20
2023-04-14T18:01:40.943Z,10.00
2023-04-14T18:04:11.051Z,9.80
2023-04-14T18:06:41.026Z,9.60
2023-04-14T18:09:11.424Z,9.50
2023-04-14T18:11:41.308Z,9.40
2023-04-14T18:14:11.588Z,9.40
2023-04-14T18:16:44.158Z,9.20
2023-04-14T18:19:14.065Z,9.20
2023-04-14T18:21:45.106Z,9.20
